Time;durP1;ratioP1;P1;durP2;ratioP2;P2;SDS_P1;SDS_P2;PMS_P1;PMS_P2;Temp;Humidity;BMP_temperature;BMP_pressure;BME280_temperature;BME280_humidity;BME280_pressure;Samples;Min_cycle;Max_cycle;Signal;HPM_P1;HPM_P2
2023/05/15 00:01:44;;;;;;;3.90;3.60;;;;;;;11.59;100.00;97685.53;5073714;28;20668;-77
2023/05/15 00:04:10;;;;;;;4.67;4.27;;;;;;;11.59;100.00;97698.03;5074021;28;20209;-77
2023/05/15 00:06:37;;;;;;;4.80;4.47;;;;;;;11.44;100.00;97690.53;5073471;28;20226;-77
2023/05/15 00:09:04;;;;;;;4.40;4.00;;;;;;;11.47;100.00;97684.75;5073605;28;20208;-77
2023/05/15 00:11:30;;;;;;;5.17;4.30;;;;;;;11.56;100.00;97679.84;5073616;28;20688;-77
2023/05/15 00:13:56;;;;;;;3.90;3.60;;;;;;;11.70;100.00;97678.63;5073898;28;20227;-77
2023/05/15 00:16:24;;;;;;;3.77;3.47;;;;;;;11.66;100.00;97677.47;5073526;28;20241;-77
2023/05/15 00:18:51;;;;;;;4.20;3.83;;;;;;;11.64;100.00;97677.69;5073945;28;20211;-77
2023/05/15 00:21:17;;;;;;;6.83;3.83;;;;;;;11.58;100.00;97678.56;5073429;28;20211;-77
2023/05/15 00:23:43;;;;;;;4.40;4.00;;;;;;;11.51;100.00;97674.44;5073735;28;20212;-77
2023/05/15 00:26:10;;;;;;;4.33;3.93;;;;;;;11.44;100.00;97671.88;5073604;28;20708;-77
2023/05/15 00:28:36;;;;;;;4.50;4.10;;;;;;;11.44;100.00;97669.22;5073649;28;20204;-77
2023/05/15 00:31:02;;;;;;;4.07;3.67;;;;;;;11.48;100.00;97669.59;5073615;28;20204;-77
2023/05/15 00:33:29;;;;;;;3.97;3.67;;;;;;;11.44;100.00;97661.25;5073564;28;20231;-77
2023/05/15 00:35:56;;;;;;;3.47;3.17;;;;;;;11.43;100.00;97670.28;5073520;28;20225;-77
2023/05/15 00:38:22;;;;;;;4.03;3.63;;;;;;;11.39;100.00;97671.78;5072748;28;20217;-77
2023/05/15 00:40:49;;;;;;;3.93;3.53;;;;;;;11.31;100.00;97669.50;5073253;28;20552;-77
2023/05/15 00:43:16;;;;;;;4.30;3.90;;;;;;;11.33;100.00;97672.72;5073579;28;20200;-77
2023/05/15 00:45:44;;;;;;;4.10;3.80;;;;;;;11.39;100.00;97665.66;5074810;28;20229;-77
2023/05/15 00:48:11;;;;;;;4.57;4.17;;;;;;;11.46;100.00;97669.81;5074770;28;20222;-77
2023/05/15 00:50:40;;;;;;;3.97;3.67;;;;;;;11.60;100.00;97665.06;5073418;28;20204;-77
2023/05/15 00:53:07;;;;;;;4.37;3.80;;;;;;;11.54;100.00;97673.97;5073343;28;20294;-77
2023/05/15 00:55:35;;;;;;;3.90;3.60;;;;;;;11.57;100.00;97673.50;5073279;28;20221;-77
2023/05/15 00:58:03;;;;;;;4.10;3.80;;;;;;;11.51;100.00;97669.09;5073394;28;20204;-77
2023/05/15 01:00:31;;;;;;;3.87;3.57;;;;;;;11.50;100.00;97670.97;5073384;28;20204;-77
2023/05/15 01:02:59;;;;;;;3.60;3.30;;;;;;;11.43;100.00;97666.81;5073323;28;20197;-77
2023/05/15 01:05:25;;;;;;;4.83;3.47;;;;;;;11.33;100.00;97664.75;5072907;28;20761;-77
2023/05/15 01:08:06;;;;;;;3.43;3.13;;;;;;;11.27;100.00;97666.47;5073281;28;20212;-77
2023/05/15 01:10:35;;;;;;;3.90;3.60;;;;;;;11.32;100.00;97673.78;5073297;28;20202;-77
2023/05/15 01:13:02;;;;;;;4.13;3.67;;;;;;;11.36;100.00;97669.59;5072872;28;20703;-77
2023/05/15 01:15:29;;;;;;;4.17;3.87;;;;;;;11.27;100.00;97679.78;5073038;28;20220;-77
2023/05/15 01:17:55;;;;;;;4.37;3.80;;;;;;;11.20;100.00;97686.25;5072891;28;20189;-77
2023/05/15 01:20:22;;;;;;;4.70;4.20;;;;;;;11.16;100.00;97682.44;5073109;28;20208;-77
2023/05/15 01:22:59;;;;;;;4.60;4.20;;;;;;;11.22;100.00;97681.53;5073134;28;20207;-77
2023/05/15 01:25:43;;;;;;;4.73;4.20;;;;;;;11.13;100.00;97676.78;5072698;28;20613;-77
2023/05/15 01:28:14;;;;;;;4.83;4.00;;;;;;;11.13;100.00;97679.44;5072834;28;20632;-77
2023/05/15 01:30:43;;;;;;;4.00;3.70;;;;;;;11.11;100.00;97677.00;5073970;28;20535;-77
2023/05/15 01:33:21;;;;;;;5.43;3.87;;;;;;;11.13;100.00;97672.28;5072701;28;20227;-77
2023/05/15 01:35:59;;;;;;;3.93;3.63;;;;;;;11.23;100.00;97672.50;5072995;28;20589;-77
2023/05/15 01:38:39;;;;;;;3.93;3.50;;;;;;;11.13;100.00;97678.38;5073061;28;20189;-77
2023/05/15 01:41:26;;;;;;;3.77;3.40;;;;;;;11.11;100.00;97679.66;5073059;28;20192;-77
2023/05/15 01:43:59;;;;;;;4.10;3.70;;;;;;;11.11;100.00;97679.66;5073355;28;20196;-77
2023/05/15 01:46:27;;;;;;;4.63;4.23;;;;;;;11.10;100.00;97683.38;5074224;28;20235;-77
2023/05/15 01:48:55;;;;;;;3.90;3.60;;;;;;;11.07;100.00;97669.72;5075840;28;20213;-77
2023/05/15 01:51:24;;;;;;;4.17;3.77;;;;;;;11.00;100.00;97678.59;5076481;28;20209;-77
2023/05/15 01:53:52;;;;;;;4.13;3.80;;;;;;;11.03;100.00;97674.69;5076035;28;20695;-77
2023/05/15 01:56:20;;;;;;;3.93;3.63;;;;;;;11.07;100.00;97674.00;5076044;28;20703;-77
2023/05/15 01:58:48;;;;;;;4.80;4.30;;;;;;;11.01;100.00;97682.09;5076380;28;20208;-77
2023/05/15 02:01:17;;;;;;;4.30;3.90;;;;;;;11.04;100.00;97685.09;5075994;28;20671;-77
2023/05/15 02:03:45;;;;;;;4.40;4.00;;;;;;;11.04;100.00;97679.78;5075933;28;20585;-77
2023/05/15 02:06:12;;;;;;;5.13;3.97;;;;;;;11.12;100.00;97683.94;5075845;28;20228;-77
2023/05/15 02:08:41;;;;;;;4.23;3.87;;;;;;;11.10;100.00;97678.06;5076224;28;20207;-77
2023/05/15 02:11:08;;;;;;;4.20;3.80;;;;;;;11.12;100.00;97675.94;5076195;28;20202;-77
2023/05/15 02:13:36;;;;;;;5.43;4.00;;;;;;;11.04;100.00;97681.63;5076079;28;20235;-77
2023/05/15 02:16:02;;;;;;;4.00;3.63;;;;;;;10.96;100.00;97677.44;5075435;28;20243;-77
2023/05/15 02:18:29;;;;;;;4.20;3.90;;;;;;;10.93;100.00;97677.09;5058251;28;20213;-77
2023/05/15 02:20:55;;;;;;;5.07;3.57;;;;;;;10.94;100.00;97673.41;5075848;28;20205;-77
2023/05/15 02:23:21;;;;;;;4.30;3.90;;;;;;;10.93;100.00;97679.75;5075621;28;20687;-77
2023/05/15 02:26:13;;;;;;;6.27;4.00;;;;;;;10.93;100.00;97682.44;5075868;28;20228;-77
2023/05/15 02:29:07;;;;;;;4.20;3.80;;;;;;;10.92;100.00;97686.13;5075815;28;20185;-77
2023/05/15 02:31:49;;;;;;;4.43;4.03;;;;;;;11.05;100.00;97681.38;5075441;28;20205;-77
2023/05/15 02:34:50;;;;;;;4.20;3.87;;;;;;;11.18;100.00;97680.38;5075678;28;20227;-77
2023/05/15 02:37:23;;;;;;;4.23;3.93;;;;;;;11.01;100.00;97690.06;5049150;28;20225;-77
2023/05/15 02:39:53;;;;;;;5.17;3.90;;;;;;;11.04;100.00;97693.06;5075709;28;20193;-77
2023/05/15 02:42:20;;;;;;;6.23;3.93;;;;;;;11.06;100.00;97687.53;5075566;28;20197;-77
2023/05/15 02:44:48;;;;;;;3.90;3.60;;;;;;;10.92;100.00;97688.78;5076560;28;20258;-76
2023/05/15 02:47:16;;;;;;;4.30;4.00;;;;;;;11.03;100.00;97675.50;5076919;28;20320;-77
2023/05/15 02:49:42;;;;;;;4.03;3.73;;;;;;;11.12;100.00;97681.28;5075873;28;20208;-77
2023/05/15 02:52:08;;;;;;;4.20;3.87;;;;;;;11.17;100.00;97673.41;5075240;28;20239;-77
2023/05/15 02:54:35;;;;;;;3.87;3.57;;;;;;;11.23;100.00;97682.31;5074965;28;20661;-77
2023/05/15 02:57:01;;;;;;;4.17;3.60;;;;;;;11.14;100.00;97679.22;5074910;28;20228;-77
2023/05/15 02:59:28;;;;;;;4.23;3.83;;;;;;;11.13;100.00;97680.25;5074935;28;20211;-77
2023/05/15 03:01:54;;;;;;;4.23;3.63;;;;;;;11.15;100.00;97675.50;5074823;28;20580;-77
2023/05/15 03:04:21;;;;;;;3.63;3.43;;;;;;;11.18;100.00;97674.22;5074882;28;20203;-77
2023/05/15 03:06:47;;;;;;;4.03;3.73;;;;;;;11.29;100.00;97671.56;5074979;28;20225;-77
2023/05/15 03:09:13;;;;;;;4.07;3.63;;;;;;;11.38;100.00;97670.16;5074708;28;20215;-77
2023/05/15 03:11:40;;;;;;;3.47;3.17;;;;;;;11.42;100.00;97668.66;5075165;28;20209;-77
2023/05/15 03:14:06;;;;;;;3.80;3.50;;;;;;;11.45;100.00;97668.22;5076429;28;20584;-77
2023/05/15 03:16:32;;;;;;;4.50;3.97;;;;;;;11.55;100.00;97671.06;5075936;28;20237;-77
2023/05/15 03:18:59;;;;;;;3.93;3.63;;;;;;;11.54;100.00;97672.13;5074895;28;20216;-77
2023/05/15 03:21:25;;;;;;;4.10;3.80;;;;;;;11.52;100.00;97671.53;5075183;28;20215;-77
2023/05/15 03:23:51;;;;;;;4.17;3.87;;;;;;;11.49;100.00;97668.53;5075229;28;20200;-77
2023/05/15 03:26:18;;;;;;;4.10;3.80;;;;;;;11.48;100.00;97669.59;5074684;28;20228;-77
2023/05/15 03:28:44;;;;;;;4.00;3.70;;;;;;;11.55;100.00;97667.59;5074573;28;20211;-77
2023/05/15 03:31:10;;;;;;;3.93;3.60;;;;;;;11.53;100.00;97670.50;5074254;28;20668;-77
2023/05/15 03:33:38;;;;;;;3.80;3.50;;;;;;;11.50;100.00;97672.81;5074639;28;20240;-77
2023/05/15 03:36:05;;;;;;;4.03;3.73;;;;;;;11.52;100.00;97660.88;5074592;28;20232;-77
2023/05/15 03:38:31;;;;;;;3.50;3.30;;;;;;;11.49;100.00;97664.00;5074284;28;20207;-77
2023/05/15 03:40:58;;;;;;;3.47;3.17;;;;;;;11.51;100.00;97664.59;5074230;28;20201;-77
2023/05/15 03:43:25;;;;;;;4.73;3.50;;;;;;;11.55;100.00;97656.94;5073765;28;20274;-77
2023/05/15 03:45:51;;;;;;;3.83;3.47;;;;;;;11.51;100.00;97664.59;5075459;28;20226;-77
2023/05/15 03:48:17;;;;;;;4.20;3.33;;;;;;;11.59;100.00;97669.56;5075544;28;20205;-77
2023/05/15 03:50:45;;;;;;;3.57;3.27;;;;;;;11.56;100.00;97675.34;5074275;28;20697;-77
2023/05/15 03:53:11;;;;;;;4.10;3.70;;;;;;;11.67;100.00;97669.22;5073877;28;20235;-77
2023/05/15 03:55:38;;;;;;;3.93;3.63;;;;;;;11.62;100.00;97668.31;5073950;28;20230;-77
2023/05/15 03:58:04;;;;;;;3.80;3.50;;;;;;;11.67;100.00;97669.22;5074431;28;20213;-79
2023/05/15 04:00:30;;;;;;;4.13;3.67;;;;;;;11.64;100.00;97667.03;5076015;28;20209;-79
2023/05/15 04:02:57;;;;;;;4.17;3.77;;;;;;;11.73;100.00;97668.28;5075046;28;20224;-77
2023/05/15 04:05:23;;;;;;;4.13;3.70;;;;;;;11.67;100.00;97663.88;5073833;28;20237;-77
2023/05/15 04:07:50;;;;;;;4.60;4.10;;;;;;;11.76;100.00;97667.81;5073787;28;20212;-77
2023/05/15 04:10:16;;;;;;;3.93;3.63;;;;;;;11.82;100.00;97666.06;5074464;28;20200;-77
2023/05/15 04:12:42;;;;;;;5.60;4.33;;;;;;;11.86;100.00;97669.88;5072829;28;20229;-77
2023/05/15 04:15:20;;;;;;;4.60;4.20;;;;;;;11.81;100.00;97670.59;5073188;28;20667;-77
2023/05/15 04:17:48;;;;;;;4.60;4.20;;;;;;;11.84;100.00;97677.31;5073628;28;20308;-77
2023/05/15 04:20:15;;;;;;;5.80;4.47;;;;;;;11.81;100.00;97670.59;5072967;28;20681;-77
2023/05/15 04:22:43;;;;;;;4.43;4.07;;;;;;;11.78;100.00;97670.25;5073152;28;20687;-77
2023/05/15 04:25:12;;;;;;;5.77;4.40;;;;;;;11.80;100.00;97668.97;5073219;28;20298;-77
2023/05/15 04:27:39;;;;;;;5.17;4.67;;;;;;;11.86;100.00;97675.19;5073547;28;20212;-77
2023/05/15 04:30:06;;;;;;;6.00;4.63;;;;;;;11.88;100.00;97667.78;5073047;28;20676;-77
2023/05/15 04:32:33;;;;;;;5.07;4.50;;;;;;;11.94;100.00;97667.63;5073024;28;20666;-77
2023/05/15 04:35:05;;;;;;;4.90;4.50;;;;;;;11.98;100.00;97668.78;5073124;28;20209;-77
2023/05/15 04:37:31;;;;;;;4.87;4.47;;;;;;;12.13;100.00;97669.09;5073065;28;20190;-77
2023/05/15 04:39:57;;;;;;;5.40;5.00;;;;;;;12.17;100.00;97670.22;5073274;28;20218;-77
2023/05/15 04:42:24;;;;;;;5.10;4.70;;;;;;;12.15;100.00;97661.66;5072801;28;20209;-77
2023/05/15 04:44:50;;;;;;;8.10;5.33;;;;;;;12.22;100.00;97673.00;5073981;28;20205;-77
2023/05/15 04:47:16;;;;;;;5.90;5.30;;;;;;;12.20;100.00;97667.09;5074414;28;20224;-77
2023/05/15 04:49:43;;;;;;;5.07;4.67;;;;;;;12.25;100.00;97672.50;5074108;28;20216;-77
2023/05/15 04:52:09;;;;;;;5.50;5.00;;;;;;;12.24;100.00;97668.22;5072856;28;20211;-77
2023/05/15 04:54:36;;;;;;;5.80;5.30;;;;;;;12.29;100.00;97667.53;5072982;28;20232;-77
2023/05/15 04:57:02;;;;;;;6.27;4.67;;;;;;;12.61;100.00;97669.44;5073847;28;20720;-77
2023/05/15 04:59:29;;;;;;;5.60;5.00;;;;;;;12.78;100.00;97672.94;5072809;28;20685;-77
2023/05/15 05:01:56;;;;;;;5.67;5.17;;;;;;;12.88;100.00;97674.97;5073271;28;20238;-77
2023/05/15 05:04:22;;;;;;;5.63;5.13;;;;;;;12.80;100.00;97676.16;5072989;28;20197;-77
2023/05/15 05:06:49;;;;;;;5.40;4.90;;;;;;;12.74;100.00;97677.13;5072977;28;20221;-77
2023/05/15 05:09:15;;;;;;;5.00;4.60;;;;;;;12.97;100.00;97677.00;5073199;28;20208;-77
2023/05/15 05:11:42;;;;;;;5.50;5.10;;;;;;;13.21;100.00;97683.75;5072960;28;20204;-77
2023/05/15 05:14:10;;;;;;;5.37;4.97;;;;;;;13.41;100.00;97673.41;5072442;28;20239;-77
2023/05/15 05:16:36;;;;;;;5.37;4.73;;;;;;;13.22;100.00;97676.59;5072745;28;20334;-77
2023/05/15 05:19:04;;;;;;;5.13;4.70;;;;;;;12.82;100.00;97676.72;5073122;28;20215;-77
2023/05/15 05:21:30;;;;;;;6.30;5.70;;;;;;;12.98;100.00;97675.16;5072773;28;20220;-77
2023/05/15 05:23:57;;;;;;;5.67;5.17;;;;;;;12.77;100.00;97681.97;5074545;28;20200;-77
2023/05/15 05:26:23;;;;;;;6.53;5.10;;;;;;;12.73;100.00;97690.69;5076240;28;20710;-77
2023/05/15 05:28:50;;;;;;;8.73;5.30;;;;;;;12.88;100.00;97693.63;5076591;28;20205;-77
2023/05/15 05:31:16;;;;;;;6.17;5.57;;;;;;;13.03;100.00;97691.25;5076681;28;20213;-77
2023/05/15 05:33:42;;;;;;;6.67;5.20;;;;;;;13.22;100.00;97685.41;5076444;28;20229;-78
2023/05/15 05:36:09;;;;;;;6.47;5.40;;;;;;;13.28;100.00;97691.59;5076161;28;20227;-77
2023/05/15 05:38:36;;;;;;;6.27;5.57;;;;;;;13.45;100.00;97690.56;5075772;28;20671;-77
2023/05/15 05:41:03;;;;;;;8.93;5.60;;;;;;;13.62;100.00;97691.31;5076081;28;20212;-77
2023/05/15 05:43:30;;;;;;;7.20;5.53;;;;;;;13.84;100.00;97688.66;5075832;28;20199;-77
2023/05/15 05:45:56;;;;;;;8.37;5.80;;;;;;;13.67;100.00;97682.56;5077264;28;20310;-78
2023/05/15 05:48:22;;;;;;;7.03;5.50;;;;;;;13.62;100.00;97685.16;5077255;28;20205;-77
2023/05/15 05:50:50;;;;;;;6.67;5.73;;;;;;;13.57;100.00;97693.91;5077595;28;20213;-77
2023/05/15 05:53:16;;;;;;;6.27;5.63;;;;;;;13.79;100.00;97694.75;5077314;28;20230;-77
2023/05/15 05:55:42;;;;;;;7.87;6.17;;;;;;;13.76;100.00;97687.25;5077383;28;20228;-77
2023/05/15 05:58:09;;;;;;;5.67;5.17;;;;;;;13.74;100.00;97689.34;5077214;28;20201;-77
2023/05/15 06:00:36;;;;;;;8.67;5.90;;;;;;;13.73;100.00;97690.41;5077286;28;20204;-77
2023/05/15 06:03:02;;;;;;;6.23;5.63;;;;;;;13.73;100.00;97687.72;5075594;28;20212;-77
2023/05/15 06:05:29;;;;;;;7.30;6.67;;;;;;;13.75;100.00;97690.94;5075395;28;20259;-77
2023/05/15 06:07:55;;;;;;;6.47;5.93;;;;;;;13.72;100.00;97696.81;5075789;28;20212;-77
2023/05/15 06:10:22;;;;;;;9.97;6.03;;;;;;;13.94;100.00;97692.28;5075647;28;20300;-77
2023/05/15 06:12:49;;;;;;;6.03;5.43;;;;;;;14.07;100.00;97696.44;5075654;28;20212;-78
2023/05/15 06:15:16;;;;;;;9.87;5.60;;;;;;;14.13;100.00;97693.56;5075440;28;20916;-76
2023/05/15 06:17:42;;;;;;;8.90;5.90;;;;;;;14.12;100.00;97696.50;5076788;28;20650;-76
2023/05/15 06:20:09;;;;;;;6.50;6.00;;;;;;;14.14;100.00;97695.19;5076317;28;20219;-76
2023/05/15 06:22:36;;;;;;;5.80;5.30;;;;;;;14.11;100.00;97694.88;5076543;28;20200;-77
2023/05/15 06:25:04;;;;;;;6.03;5.53;;;;;;;14.17;100.00;97700.03;5076084;28;20575;-77
2023/05/15 06:27:31;;;;;;;5.90;5.40;;;;;;;14.30;100.00;97694.31;5075469;28;20205;-76
2023/05/15 06:29:58;;;;;;;6.30;5.70;;;;;;;14.20;100.00;97694.22;5075623;28;20212;-77
2023/05/15 06:32:24;;;;;;;5.70;5.20;;;;;;;14.23;100.00;97698.25;5075265;28;20299;-76
2023/05/15 06:34:51;;;;;;;6.40;5.20;;;;;;;14.34;100.00;97700.00;5074553;28;20220;-76
2023/05/15 06:37:17;;;;;;;6.03;5.53;;;;;;;14.08;100.00;97696.19;5075744;28;20233;-76
2023/05/15 06:39:43;;;;;;;5.93;5.43;;;;;;;14.16;100.00;97700.28;5075526;28;20204;-76
2023/05/15 06:42:10;;;;;;;6.90;5.17;;;;;;;14.14;100.00;97692.50;5075435;28;20204;-73
2023/05/15 06:44:36;;;;;;;6.10;4.67;;;;;;;14.35;100.00;97699.75;5075449;28;20197;-73
2023/05/15 06:47:03;;;;;;;5.00;4.30;;;;;;;14.45;100.00;97699.84;5075589;28;20236;-73
2023/05/15 06:49:29;;;;;;;5.60;4.80;;;;;;;14.59;100.00;97706.41;5074984;28;20204;-73
2023/05/15 06:51:55;;;;;;;9.10;5.10;;;;;;;14.57;100.00;97705.84;5075324;28;20205;-73
2023/05/15 06:54:22;;;;;;;5.80;4.63;;;;;;;14.80;100.00;97702.88;5075362;28;20223;-73
2023/05/15 06:56:48;;;;;;;6.33;4.77;;;;;;;14.56;100.00;97701.56;5074886;28;20228;-73
2023/05/15 06:59:14;;;;;;;9.93;4.47;;;;;;;14.58;100.00;97703.97;5075290;28;20218;-73
2023/05/15 07:01:41;;;;;;;4.83;4.43;;;;;;;14.43;100.00;97699.28;5075566;28;20299;-73
2023/05/15 07:04:07;;;;;;;4.73;4.33;;;;;;;14.53;100.00;97704.75;5075190;28;20291;-73
2023/05/15 07:06:35;;;;;;;4.87;4.37;;;;;;;14.70;100.00;97702.75;5074929;28;20224;-73
2023/05/15 07:09:01;;;;;;;5.40;4.67;;;;;;;14.93;100.00;97699.75;5075269;28;20317;-73
2023/05/15 07:11:28;;;;;;;4.23;3.83;;;;;;;14.94;100.00;97698.72;5075165;28;20212;-72
2023/05/15 07:13:54;;;;;;;4.43;4.03;;;;;;;15.03;100.00;97707.91;5075042;28;20221;-73
2023/05/15 07:16:21;;;;;;;4.00;3.67;;;;;;;15.10;98.94;97711.16;5074366;28;20240;-73
2023/05/15 07:18:47;;;;;;;5.40;4.03;;;;;;;15.05;99.44;97700.41;5074941;28;20299;-73
2023/05/15 07:21:13;;;;;;;3.70;3.40;;;;;;;15.07;100.00;97706.28;5075062;28;20204;-73
2023/05/15 07:23:40;;;;;;;4.20;3.80;;;;;;;15.06;99.50;97703.91;5075189;28;20196;-73
2023/05/15 07:26:06;;;;;;;3.93;3.60;;;;;;;15.07;100.00;97706.28;5074698;28;20229;-73
2023/05/15 07:28:33;;;;;;;4.40;4.00;;;;;;;15.11;100.00;97707.41;5074440;28;20575;-73
2023/05/15 07:30:59;;;;;;;4.97;4.17;;;;;;;15.18;99.74;97704.50;5075016;28;20200;-73
2023/05/15 07:33:26;;;;;;;5.83;4.03;;;;;;;15.13;98.53;97710.66;5074935;28;20216;-73
2023/05/15 07:35:53;;;;;;;4.10;3.80;;;;;;;15.25;100.00;97713.94;5074697;28;20233;-73
2023/05/15 07:38:19;;;;;;;4.20;3.80;;;;;;;15.37;100.00;97701.22;5075073;28;20204;-73
2023/05/15 07:40:45;;;;;;;4.47;4.03;;;;;;;15.41;100.00;97694.28;5074625;28;20208;-74
2023/05/15 07:43:12;;;;;;;4.87;4.40;;;;;;;15.30;100.00;97700.59;5074446;28;20215;-73
2023/05/15 07:45:38;;;;;;;4.97;4.00;;;;;;;15.27;99.76;97714.50;5074477;28;20342;-73
2023/05/15 07:48:18;;;;;;;4.40;3.80;;;;;;;15.81;95.17;97705.25;5074156;28;20208;-73
2023/05/15 07:50:46;;;;;;;4.53;3.73;;;;;;;15.77;96.68;97709.50;5074031;28;20205;-74
2023/05/15 07:53:15;;;;;;;4.60;3.80;;;;;;;15.83;95.98;97704.97;5074745;28;20209;-74
2023/05/15 07:55:43;;;;;;;4.20;3.90;;;;;;;15.60;96.58;97706.19;5074299;28;20228;-74
2023/05/15 07:58:09;;;;;;;4.30;3.77;;;;;;;15.89;95.79;97699.38;5074329;28;20200;-74
2023/05/15 08:00:36;;;;;;;3.70;3.17;;;;;;;15.87;93.18;97696.16;5074233;28;20209;-73
2023/05/15 08:03:03;;;;;;;4.23;3.23;;;;;;;15.86;93.57;97702.56;5073910;28;20769;-73
2023/05/15 08:05:29;;;;;;;5.33;3.63;;;;;;;16.15;94.10;97698.41;5073639;28;20220;-72
2023/05/15 08:07:56;;;;;;;6.70;3.53;;;;;;;16.05;93.53;97697.59;5073932;28;20208;-73
2023/05/15 08:10:23;;;;;;;5.10;3.10;;;;;;;16.03;92.60;97705.06;5074272;28;20210;-73
2023/05/15 08:12:49;;;;;;;4.67;3.00;;;;;;;16.26;92.00;97700.06;5074089;28;20211;-73
2023/05/15 08:15:16;;;;;;;3.43;3.10;;;;;;;16.30;89.62;97695.78;5073088;28;20236;-73
2023/05/15 08:17:43;;;;;;;3.40;3.10;;;;;;;16.41;92.48;97696.63;5073609;28;20199;-73
2023/05/15 08:20:10;;;;;;;3.40;3.07;;;;;;;16.62;90.98;97690.25;5073636;28;20200;-73
2023/05/15 08:22:36;;;;;;;3.70;3.23;;;;;;;16.67;85.10;97695.63;5073810;28;20232;-73
2023/05/15 08:25:05;;;;;;;3.17;2.87;;;;;;;16.50;85.51;97685.13;5073784;28;20209;-73
2023/05/15 08:27:31;;;;;;;2.80;2.60;;;;;;;16.93;83.79;97694.59;5073724;28;20208;-75
2023/05/15 08:29:58;;;;;;;3.30;3.00;;;;;;;16.50;87.71;97689.69;5074007;28;20215;-73
2023/05/15 08:32:25;;;;;;;4.60;3.27;;;;;;;16.36;88.58;97692.03;5073797;28;20209;-75
2023/05/15 08:34:51;;;;;;;4.37;3.00;;;;;;;16.57;89.05;97690.25;5074684;28;20229;-76
2023/05/15 08:37:18;;;;;;;3.37;2.70;;;;;;;16.44;85.10;97685.38;5074279;28;20220;-78
2023/05/15 08:39:44;;;;;;;5.13;2.73;;;;;;;16.71;90.26;97686.78;5074682;28;20209;-78
2023/05/15 08:42:19;;;;;;;3.60;3.40;;;;;;;16.99;86.95;97688.97;5074576;28;20200;-78
2023/05/15 08:44:46;;;;;;;3.57;3.27;;;;;;;16.63;87.42;97691.88;5074366;28;20191;-77
2023/05/15 08:47:14;;;;;;;2.90;2.70;;;;;;;16.90;85.00;97681.69;5083174;28;20215;-76
2023/05/15 08:49:47;;;;;;;4.57;3.00;;;;;;;16.99;89.86;97685.47;5083694;28;20201;-77
2023/05/15 08:52:13;;;;;;;3.00;2.80;;;;;;;16.98;85.43;97689.22;5085546;28;20196;-77
2023/05/15 08:54:41;;;;;;;3.70;3.07;;;;;;;17.27;82.17;97679.53;5083589;28;20582;-76
2023/05/15 08:57:09;;;;;;;3.67;2.87;;;;;;;17.41;86.29;97675.28;5083949;28;20551;-77
2023/05/15 08:59:37;;;;;;;3.60;3.30;;;;;;;17.27;83.32;97677.66;5086274;28;20200;-77
2023/05/15 09:02:04;;;;;;;3.10;2.80;;;;;;;17.79;88.42;97667.38;5089709;28;20196;-74
2023/05/15 09:04:30;;;;;;;3.43;3.13;;;;;;;18.05;80.65;97668.88;5086265;28;20561;-74
2023/05/15 09:07:01;;;;;;;3.50;3.23;;;;;;;17.82;84.82;97668.72;5087784;28;20302;-74
2023/05/15 09:09:29;;;;;;;3.30;3.00;;;;;;;18.08;78.57;97671.03;5088152;28;20192;-74
2023/05/15 09:11:56;;;;;;;3.70;3.30;;;;;;;17.88;80.30;97668.44;5086434;28;20291;-74
2023/05/15 09:14:22;;;;;;;6.37;2.90;;;;;;;17.48;80.88;97665.84;5086809;28;20212;-74
2023/05/15 09:16:52;;;;;;;3.80;3.37;;;;;;;17.65;80.01;97665.53;5087586;28;20241;-73
2023/05/15 09:19:20;;;;;;;3.20;3.00;;;;;;;17.38;82.09;97665.03;5093234;28;20686;-74
2023/05/15 09:21:46;;;;;;;5.77;3.10;;;;;;;17.27;76.85;97669.59;5098815;28;20268;-73
2023/05/15 09:24:27;;;;;;;3.37;3.17;;;;;;;17.00;82.23;97658.34;5098718;28;20199;-73
2023/05/15 09:27:05;;;;;;;3.93;3.50;;;;;;;17.59;78.84;97671.97;5097839;28;20235;-74
2023/05/15 09:29:32;;;;;;;4.77;3.33;;;;;;;16.89;79.95;97664.78;5097342;28;20208;-73
2023/05/15 09:32:07;;;;;;;4.27;3.03;;;;;;;17.26;83.50;97665.31;5097756;28;20571;-73
2023/05/15 09:34:36;;;;;;;3.47;3.17;;;;;;;17.04;82.37;97662.09;5097372;28;20238;-74
2023/05/15 09:37:04;;;;;;;3.87;3.10;;;;;;;17.09;81.46;97662.09;5097239;28;20241;-73
2023/05/15 09:39:31;;;;;;;4.17;3.07;;;;;;;17.22;81.02;97661.56;5096932;28;20211;-73
2023/05/15 09:42:11;;;;;;;3.87;3.27;;;;;;;17.34;75.81;97659.41;5097250;28;20204;-73
2023/05/15 09:44:45;;;;;;;3.50;3.20;;;;;;;17.69;76.42;97651.25;5097023;28;20204;-73
2023/05/15 09:47:13;;;;;;;4.37;2.73;;;;;;;17.89;74.45;97653.91;5096741;28;20243;-73
2023/05/15 09:49:43;;;;;;;3.90;3.50;;;;;;;18.02;72.97;97656.00;5097008;28;20581;-73
2023/05/15 09:52:10;;;;;;;4.27;3.07;;;;;;;17.84;75.28;97651.22;5097749;28;20208;-73
2023/05/15 09:54:37;;;;;;;4.93;3.00;;;;;;;18.10;75.76;97652.72;5096957;28;20220;-73
2023/05/15 09:57:11;;;;;;;4.20;2.87;;;;;;;18.10;71.05;97647.34;5096730;28;20250;-73
2023/05/15 09:59:45;;;;;;;3.00;2.80;;;;;;;18.32;69.90;97650.44;5096938;28;20218;-74
2023/05/15 10:02:30;;;;;;;3.00;2.67;;;;;;;18.24;69.62;97652.94;5096863;28;20203;-74
2023/05/15 10:04:58;;;;;;;4.13;2.90;;;;;;;18.48;70.55;97653.91;5096994;28;20275;-73
2023/05/15 10:07:32;;;;;;;4.23;2.87;;;;;;;18.55;70.37;97649.81;5096550;28;20698;-73
2023/05/15 10:09:59;;;;;;;4.00;2.73;;;;;;;18.82;72.94;97644.75;5095246;28;20593;-74
2023/05/15 10:12:26;;;;;;;3.73;2.87;;;;;;;18.47;69.43;97636.97;5096249;28;20574;-73
2023/05/15 10:14:57;;;;;;;3.60;3.30;;;;;;;18.57;70.68;97636.88;5096037;28;20212;-73
2023/05/15 10:17:24;;;;;;;3.30;3.10;;;;;;;17.84;70.60;97636.97;5087888;28;20628;-78
2023/05/15 10:19:51;;;;;;;3.90;3.03;;;;;;;18.37;71.72;97628.91;5097166;28;20688;-78
2023/05/15 10:22:23;;;;;;;3.53;3.27;;;;;;;17.57;69.22;97626.59;5096458;28;20208;-77
2023/05/15 10:24:55;;;;;;;3.50;3.20;;;;;;;18.22;71.32;97628.16;5095372;28;20188;-78
2023/05/15 10:27:23;;;;;;;4.23;3.23;;;;;;;18.67;70.48;97619.84;5078586;28;20192;-78
2023/05/15 10:29:50;;;;;;;3.40;3.10;;;;;;;18.72;73.53;97622.50;5096823;28;20204;-78
2023/05/15 10:32:17;;;;;;;3.00;2.80;;;;;;;18.31;65.66;97611.19;5096666;28;20215;-78
2023/05/15 10:34:45;;;;;;;3.50;3.20;;;;;;;18.52;71.13;97607.31;5096038;28;20693;-78
2023/05/15 10:37:12;;;;;;;3.00;2.80;;;;;;;18.54;68.14;97607.00;5096781;28;20224;-78
2023/05/15 10:39:39;;;;;;;3.03;2.80;;;;;;;18.97;64.48;97595.34;5077770;28;20265;-77
2023/05/15 10:42:07;;;;;;;3.13;2.83;;;;;;;19.08;64.48;97594.97;5096110;28;20211;-78
2023/05/15 10:44:34;;;;;;;2.50;2.30;;;;;;;18.86;62.17;97591.94;5096840;28;20199;-79
2023/05/15 10:47:00;;;;;;;3.70;2.97;;;;;;;18.01;64.32;97594.41;5077719;28;20224;-78
2023/05/15 10:49:27;;;;;;;2.40;2.30;;;;;;;18.17;65.12;97587.84;5076594;28;20205;-78
2023/05/15 10:51:53;;;;;;;3.60;2.63;;;;;;;18.53;68.28;97586.56;5075065;28;20321;-78
2023/05/15 10:54:22;;;;;;;2.80;2.30;;;;;;;18.54;63.46;97586.28;5076110;28;20204;-77
2023/05/15 10:56:48;;;;;;;2.33;2.13;;;;;;;18.01;66.78;97589.81;5091734;28;20234;-76
2023/05/15 10:59:14;;;;;;;2.53;2.20;;;;;;;18.19;64.65;97589.16;5096298;28;20219;-76
2023/05/15 11:01:41;;;;;;;2.93;2.40;;;;;;;18.20;62.99;97585.41;5095734;28;20299;-76
2023/05/15 11:04:18;;;;;;;7.13;2.50;;;;;;;18.20;63.20;97582.72;5096152;28;20280;-76
2023/05/15 11:06:46;;;;;;;4.20;2.97;;;;;;;18.79;62.79;97585.28;5095697;28;20756;-76
2023/05/15 11:09:23;;;;;;;2.63;2.43;;;;;;;18.69;63.78;97579.97;5096081;28;20204;-75
2023/05/15 11:11:53;;;;;;;5.87;2.50;;;;;;;18.45;65.29;97584.44;5095815;28;20211;-76
2023/05/15 11:14:20;;;;;;;2.50;2.30;;;;;;;18.42;65.16;97580.44;5095642;28;20211;-76
2023/05/15 11:16:52;;;;;;;2.97;2.30;;;;;;;17.91;66.75;97581.00;5096287;28;20605;-76
2023/05/15 11:19:37;;;;;;;3.47;2.40;;;;;;;17.84;61.75;97589.38;5096225;28;20230;-73
2023/05/15 11:22:30;;;;;;;2.63;2.43;;;;;;;18.25;62.29;97580.00;5094773;28;20204;-74
2023/05/15 11:25:11;;;;;;;2.60;2.40;;;;;;;18.46;62.89;97575.31;5094495;28;20249;-74
2023/05/15 11:27:41;;;;;;;2.40;2.20;;;;;;;18.83;61.55;97560.19;5091650;28;20195;-73
2023/05/15 11:30:13;;;;;;;3.17;2.00;;;;;;;19.13;58.26;97561.78;5095247;28;20199;-73
2023/05/15 11:32:46;;;;;;;2.50;2.30;;;;;;;19.49;59.29;97558.44;5095452;28;20200;-73
2023/05/15 11:35:16;;;;;;;4.07;2.37;;;;;;;19.12;58.99;97561.00;5094637;28;20571;-74